首页
METAR-TAF:

METAR-TAF

机场 :

特里布万国际机场

加德滿都, 尼泊尔

纬度: 27-42N, 经度: 085-22E, 海拔: 1337米

当前天气观测

该预报发布于37分钟前的06:50 UTC
风速3节,风向东转东南,在东北之间变化
温度 16°C
湿度 55%
气压 1023 hPa
能見度: 5000
少量云层高于1500英尺

METAR: VNKT 240650Z 11003KT 050V170 5000 HZ FEW015 16/07 Q1023 NOSIG

时间: 13:12 (07:27 UTC)

预报

该预报发布于2小时和27分钟前的05:00 UTC
预报有效从24日的 06点(UTC)到 25日的 06点(UTC)
风速4节,风向
能見度: 4000
少量云层高于1500英尺
轻雾
成为
从 24日的 07点(UTC)到 24日的 09点(UTC)
风速8节,风向西
能見度: 7000
少量云层高于2000英尺
成为
从 24日的 13点(UTC)到 24日的 14点(UTC)
风速2节,风向多变
能見度: 5000
少量云层高于1500英尺
散云层高于10000英尺
轻雾
成为
从 24日的 23点(UTC)到 25日的 01点(UTC)
风速节,风向
能見度: 2000
少量云层高于1000英尺
散云层高于10000英尺
轻雾
几率 40%
从 25日的 00点(UTC)到 25日的 02点(UTC)
能見度: 0500
成为
从 25日的 03点(UTC)到 25日的 04点(UTC)
风速3节,风向东南
能見度: 1500
少量云层高于1000英尺
散云层高于3000英尺
多云层高于10000英尺
轻雾
成为
从 25日的 04点(UTC)到 25日的 06点(UTC)
风速5节,风向南转南东
能見度: 4000
少量云层高于1000英尺
散云层高于3000英尺
多云层高于10000英尺

TAF: VNKT 240500Z 2406/2506 18004KT 4000 BR FEW015 BECMG 2407/2409 28008KT 7000 FEW020 BECMG 2413/2414 VRB02KT 5000 BR FEW015 SCT100 BECMG 2423/2501 00000KT 2000 BR FEW010 SCT100 PROB40 2500/2502 0500 FG BECMG 2503/2504 14003KT 1500 BR FEW010 SCT030 BKN100 BECMG 2504/2506 16005KT 4000 -RA/BR FEW010 SCT030 BKN100

超过4000个机场的气象观测和天气预报(METAR&TAF报告)。

可查询的气象台以黄色和红色小点在地图上表示。

将鼠标移到小点上方,可查看气象台名称。

然后点击查看天气观测和预报。

如需切换地图:点击带黑十字的绿色按钮放大地图;点击带横线的绿色按钮缩小地图;或者点击绿色箭头查看邻近地区的地图。


METAR-TAF: